sensor_id;sensor_type;location;lat;lon;timestamp;P1;durP1;ratioP1;P2;durP2;ratioP2
26040;SDS011;13816;53.628;9.950;2022-09-30T00:00:29;8.50;;;6.03;;
26040;SDS011;13816;53.628;9.950;2022-09-30T00:02:55;6.80;;;6.10;;
26040;SDS011;13816;53.628;9.950;2022-09-30T00:05:22;6.60;;;6.00;;
26040;SDS011;13816;53.628;9.950;2022-09-30T00:07:48;7.10;;;6.40;;
26040;SDS011;13816;53.628;9.950;2022-09-30T00:10:14;8.27;;;6.40;;
26040;SDS011;13816;53.628;9.950;2022-09-30T00:12:41;6.70;;;6.10;;
26040;SDS011;13816;53.628;9.950;2022-09-30T00:15:07;7.73;;;7.03;;
26040;SDS011;13816;53.628;9.950;2022-09-30T00:17:34;7.70;;;7.00;;
26040;SDS011;13816;53.628;9.950;2022-09-30T00:20:00;10.17;;;6.97;;
26040;SDS011;13816;53.628;9.950;2022-09-30T00:22:26;9.73;;;8.70;;
26040;SDS011;13816;53.628;9.950;2022-09-30T00:24:52;8.47;;;7.23;;
26040;SDS011;13816;53.628;9.950;2022-09-30T00:27:19;10.40;;;7.40;;
26040;SDS011;13816;53.628;9.950;2022-09-30T00:29:46;10.80;;;8.70;;
26040;SDS011;13816;53.628;9.950;2022-09-30T00:32:12;9.20;;;8.03;;
26040;SDS011;13816;53.628;9.950;2022-09-30T00:34:38;8.40;;;7.43;;
26040;SDS011;13816;53.628;9.950;2022-09-30T00:37:05;9.43;;;8.47;;
26040;SDS011;13816;53.628;9.950;2022-09-30T00:39:33;9.80;;;8.80;;
26040;SDS011;13816;53.628;9.950;2022-09-30T00:42:01;9.23;;;8.30;;
26040;SDS011;13816;53.628;9.950;2022-09-30T00:47:23;8.47;;;6.97;;
26040;SDS011;13816;53.628;9.950;2022-09-30T00:56:13;8.77;;;6.80;;
26040;SDS011;13816;53.628;9.950;2022-09-30T00:58:44;9.57;;;8.33;;
26040;SDS011;13816;53.628;9.950;2022-09-30T01:01:11;9.93;;;7.83;;
26040;SDS011;13816;53.628;9.950;2022-09-30T01:03:46;8.00;;;7.20;;
26040;SDS011;13816;53.628;9.950;2022-09-30T01:06:14;9.73;;;7.93;;
26040;SDS011;13816;53.628;9.950;2022-09-30T01:08:40;9.57;;;8.27;;
26040;SDS011;13816;53.628;9.950;2022-09-30T01:11:07;9.43;;;7.90;;
26040;SDS011;13816;53.628;9.950;2022-09-30T01:13:33;8.47;;;7.57;;
26040;SDS011;13816;53.628;9.950;2022-09-30T01:16:05;9.77;;;8.87;;
26040;SDS011;13816;53.628;9.950;2022-09-30T01:18:41;11.83;;;8.53;;
26040;SDS011;13816;53.628;9.950;2022-09-30T01:21:14;9.60;;;8.60;;
26040;SDS011;13816;53.628;9.950;2022-09-30T01:26:22;8.47;;;7.67;;
26040;SDS011;13816;53.628;9.950;2022-09-30T01:37:07;9.30;;;8.17;;
26040;SDS011;13816;53.628;9.950;2022-09-30T01:45:12;8.87;;;7.97;;
26040;SDS011;13816;53.628;9.950;2022-09-30T01:47:42;8.87;;;7.80;;
26040;SDS011;13816;53.628;9.950;2022-09-30T01:50:15;8.30;;;7.57;;
26040;SDS011;13816;53.628;9.950;2022-09-30T01:52:44;13.10;;;8.43;;
26040;SDS011;13816;53.628;9.950;2022-09-30T01:55:28;9.53;;;8.20;;
26040;SDS011;13816;53.628;9.950;2022-09-30T01:57:57;9.07;;;8.17;;
26040;SDS011;13816;53.628;9.950;2022-09-30T02:00:25;9.50;;;8.60;;
26040;SDS011;13816;53.628;9.950;2022-09-30T02:05:25;10.50;;;8.37;;
26040;SDS011;13816;53.628;9.950;2022-09-30T02:07:54;9.33;;;8.37;;
26040;SDS011;13816;53.628;9.950;2022-09-30T02:10:22;10.00;;;9.00;;
26040;SDS011;13816;53.628;9.950;2022-09-30T02:13:05;9.97;;;8.77;;
26040;SDS011;13816;53.628;9.950;2022-09-30T02:15:34;13.20;;;10.50;;
26040;SDS011;13816;53.628;9.950;2022-09-30T02:18:02;10.10;;;9.00;;
26040;SDS011;13816;53.628;9.950;2022-09-30T02:20:31;11.43;;;10.20;;
26040;SDS011;13816;53.628;9.950;2022-09-30T02:23:01;10.80;;;9.70;;
26040;SDS011;13816;53.628;9.950;2022-09-30T02:25:31;11.83;;;10.70;;
26040;SDS011;13816;53.628;9.950;2022-09-30T02:27:59;11.73;;;9.90;;
26040;SDS011;13816;53.628;9.950;2022-09-30T02:30:27;11.63;;;10.20;;
26040;SDS011;13816;53.628;9.950;2022-09-30T02:32:58;14.50;;;13.00;;
26040;SDS011;13816;53.628;9.950;2022-09-30T02:40:51;14.73;;;12.33;;
26040;SDS011;13816;53.628;9.950;2022-09-30T02:43:18;14.60;;;12.50;;
26040;SDS011;13816;53.628;9.950;2022-09-30T02:45:48;12.90;;;11.57;;
26040;SDS011;13816;53.628;9.950;2022-09-30T02:48:29;15.77;;;11.80;;
26040;SDS011;13816;53.628;9.950;2022-09-30T02:51:20;14.47;;;12.20;;
26040;SDS011;13816;53.628;9.950;2022-09-30T02:53:51;14.30;;;11.63;;
26040;SDS011;13816;53.628;9.950;2022-09-30T02:56:34;13.97;;;12.43;;
26040;SDS011;13816;53.628;9.950;2022-09-30T02:59:02;14.27;;;11.27;;
26040;SDS011;13816;53.628;9.950;2022-09-30T03:01:29;11.20;;;10.20;;
26040;SDS011;13816;53.628;9.950;2022-09-30T03:04:02;12.40;;;10.90;;
26040;SDS011;13816;53.628;9.950;2022-09-30T03:06:29;17.93;;;11.63;;
26040;SDS011;13816;53.628;9.950;2022-09-30T03:08:55;13.23;;;11.63;;
26040;SDS011;13816;53.628;9.950;2022-09-30T03:11:23;13.93;;;12.43;;
26040;SDS011;13816;53.628;9.950;2022-09-30T03:24:13;13.30;;;11.90;;
26040;SDS011;13816;53.628;9.950;2022-09-30T03:26:51;13.00;;;11.67;;
26040;SDS011;13816;53.628;9.950;2022-09-30T03:34:23;13.13;;;11.80;;
26040;SDS011;13816;53.628;9.950;2022-09-30T03:39:23;13.70;;;12.30;;
26040;SDS011;13816;53.628;9.950;2022-09-30T03:48:07;15.60;;;12.40;;
26040;SDS011;13816;53.628;9.950;2022-09-30T03:50:35;15.83;;;13.33;;
26040;SDS011;13816;53.628;9.950;2022-09-30T03:53:03;15.77;;;13.27;;
26040;SDS011;13816;53.628;9.950;2022-09-30T03:55:41;22.23;;;14.17;;
26040;SDS011;13816;53.628;9.950;2022-09-30T03:58:08;17.43;;;14.60;;
26040;SDS011;13816;53.628;9.950;2022-09-30T04:06:33;19.10;;;15.90;;
26040;SDS011;13816;53.628;9.950;2022-09-30T04:08:59;21.67;;;16.90;;
26040;SDS011;13816;53.628;9.950;2022-09-30T04:11:25;17.50;;;14.67;;
26040;SDS011;13816;53.628;9.950;2022-09-30T04:13:51;18.37;;;16.47;;
26040;SDS011;13816;53.628;9.950;2022-09-30T04:16:17;21.40;;;16.53;;
26040;SDS011;13816;53.628;9.950;2022-09-30T04:18:43;19.93;;;16.20;;
26040;SDS011;13816;53.628;9.950;2022-09-30T04:21:10;19.33;;;16.03;;
26040;SDS011;13816;53.628;9.950;2022-09-30T04:23:37;17.83;;;14.87;;
26040;SDS011;13816;53.628;9.950;2022-09-30T04:26:05;22.17;;;16.80;;
26040;SDS011;13816;53.628;9.950;2022-09-30T04:28:32;19.83;;;16.20;;
26040;SDS011;13816;53.628;9.950;2022-09-30T04:31:02;19.60;;;16.73;;
26040;SDS011;13816;53.628;9.950;2022-09-30T04:33:28;19.90;;;16.87;;
26040;SDS011;13816;53.628;9.950;2022-09-30T04:35:55;22.13;;;17.20;;
26040;SDS011;13816;53.628;9.950;2022-09-30T04:38:21;22.50;;;17.83;;
26040;SDS011;13816;53.628;9.950;2022-09-30T04:40:49;21.80;;;16.80;;
26040;SDS011;13816;53.628;9.950;2022-09-30T04:43:16;20.73;;;17.50;;
26040;SDS011;13816;53.628;9.950;2022-09-30T04:45:46;26.90;;;16.43;;
26040;SDS011;13816;53.628;9.950;2022-09-30T04:48:12;25.50;;;18.30;;
26040;SDS011;13816;53.628;9.950;2022-09-30T04:50:39;18.63;;;16.10;;
26040;SDS011;13816;53.628;9.950;2022-09-30T04:53:10;24.83;;;18.50;;
26040;SDS011;13816;53.628;9.950;2022-09-30T04:55:37;18.03;;;14.97;;
26040;SDS011;13816;53.628;9.950;2022-09-30T04:58:03;24.23;;;17.73;;
26040;SDS011;13816;53.628;9.950;2022-09-30T05:00:29;20.93;;;15.70;;
26040;SDS011;13816;53.628;9.950;2022-09-30T05:02:55;17.20;;;15.33;;
26040;SDS011;13816;53.628;9.950;2022-09-30T05:05:22;19.10;;;16.67;;
26040;SDS011;13816;53.628;9.950;2022-09-30T05:07:48;17.90;;;15.97;;
26040;SDS011;13816;53.628;9.950;2022-09-30T05:10:14;21.30;;;17.00;;
26040;SDS011;13816;53.628;9.950;2022-09-30T05:12:40;17.80;;;15.90;;
26040;SDS011;13816;53.628;9.950;2022-09-30T05:15:08;17.43;;;15.73;;
26040;SDS011;13816;53.628;9.950;2022-09-30T05:17:34;19.93;;;16.27;;
26040;SDS011;13816;53.628;9.950;2022-09-30T05:20:01;18.60;;;15.73;;
26040;SDS011;13816;53.628;9.950;2022-09-30T05:22:30;23.57;;;17.47;;
26040;SDS011;13816;53.628;9.950;2022-09-30T05:24:56;20.97;;;17.13;;
26040;SDS011;13816;53.628;9.950;2022-09-30T05:27:23;23.50;;;17.97;;
26040;SDS011;13816;53.628;9.950;2022-09-30T05:29:49;19.30;;;15.47;;
26040;SDS011;13816;53.628;9.950;2022-09-30T05:32:15;21.13;;;17.17;;
26040;SDS011;13816;53.628;9.950;2022-09-30T05:34:42;17.23;;;15.43;;
26040;SDS011;13816;53.628;9.950;2022-09-30T05:37:08;21.33;;;17.10;;
26040;SDS011;13816;53.628;9.950;2022-09-30T05:39:35;19.00;;;16.10;;
26040;SDS011;13816;53.628;9.950;2022-09-30T05:42:01;18.20;;;16.20;;
26040;SDS011;13816;53.628;9.950;2022-09-30T05:44:27;20.90;;;16.23;;
26040;SDS011;13816;53.628;9.950;2022-09-30T05:46:53;17.50;;;14.77;;
26040;SDS011;13816;53.628;9.950;2022-09-30T05:49:19;22.33;;;16.20;;
26040;SDS011;13816;53.628;9.950;2022-09-30T05:51:46;16.87;;;14.60;;
26040;SDS011;13816;53.628;9.950;2022-09-30T05:54:12;17.87;;;15.30;;
26040;SDS011;13816;53.628;9.950;2022-09-30T05:56:38;18.73;;;16.40;;
26040;SDS011;13816;53.628;9.950;2022-09-30T05:59:04;17.97;;;16.07;;
26040;SDS011;13816;53.628;9.950;2022-09-30T06:01:31;17.40;;;15.60;;
26040;SDS011;13816;53.628;9.950;2022-09-30T06:03:57;19.60;;;16.50;;
26040;SDS011;13816;53.628;9.950;2022-09-30T06:06:23;18.10;;;16.03;;
26040;SDS011;13816;53.628;9.950;2022-09-30T06:08:50;18.77;;;16.77;;
26040;SDS011;13816;53.628;9.950;2022-09-30T06:11:40;21.80;;;16.97;;
26040;SDS011;13816;53.628;9.950;2022-09-30T06:14:06;20.90;;;17.27;;
26040;SDS011;13816;53.628;9.950;2022-09-30T06:16:33;18.57;;;16.70;;
26040;SDS011;13816;53.628;9.950;2022-09-30T06:18:59;18.63;;;16.77;;
26040;SDS011;13816;53.628;9.950;2022-09-30T06:21:25;25.07;;;18.73;;
26040;SDS011;13816;53.628;9.950;2022-09-30T06:23:53;21.27;;;17.47;;
26040;SDS011;13816;53.628;9.950;2022-09-30T06:26:22;21.30;;;18.50;;
26040;SDS011;13816;53.628;9.950;2022-09-30T06:28:48;19.13;;;17.10;;
26040;SDS011;13816;53.628;9.950;2022-09-30T06:31:15;22.97;;;17.03;;
26040;SDS011;13816;53.628;9.950;2022-09-30T06:33:42;19.90;;;16.60;;
26040;SDS011;13816;53.628;9.950;2022-09-30T06:36:08;22.80;;;18.30;;
26040;SDS011;13816;53.628;9.950;2022-09-30T06:38:34;20.53;;;18.00;;
26040;SDS011;13816;53.628;9.950;2022-09-30T06:41:01;23.73;;;19.37;;
26040;SDS011;13816;53.628;9.950;2022-09-30T06:43:27;22.47;;;18.70;;
26040;SDS011;13816;53.628;9.950;2022-09-30T06:45:53;21.77;;;17.90;;
26040;SDS011;13816;53.628;9.950;2022-09-30T06:48:19;23.33;;;18.43;;
26040;SDS011;13816;53.628;9.950;2022-09-30T06:50:47;26.67;;;18.93;;
26040;SDS011;13816;53.628;9.950;2022-09-30T06:53:13;22.60;;;19.23;;
26040;SDS011;13816;53.628;9.950;2022-09-30T06:55:39;25.47;;;20.53;;
26040;SDS011;13816;53.628;9.950;2022-09-30T06:58:08;22.30;;;19.63;;
26040;SDS011;13816;53.628;9.950;2022-09-30T07:00:38;23.07;;;18.70;;
26040;SDS011;13816;53.628;9.950;2022-09-30T07:03:04;22.77;;;19.00;;
26040;SDS011;13816;53.628;9.950;2022-09-30T07:05:34;17.80;;;15.77;;
26040;SDS011;13816;53.628;9.950;2022-09-30T07:08:01;21.53;;;16.00;;
26040;SDS011;13816;53.628;9.950;2022-09-30T07:10:27;28.63;;;17.83;;
26040;SDS011;13816;53.628;9.950;2022-09-30T07:12:53;19.27;;;16.80;;
26040;SDS011;13816;53.628;9.950;2022-09-30T07:15:20;19.70;;;17.07;;
26040;SDS011;13816;53.628;9.950;2022-09-30T07:17:54;18.00;;;16.10;;
26040;SDS011;13816;53.628;9.950;2022-09-30T07:20:23;15.77;;;14.27;;
26040;SDS011;13816;53.628;9.950;2022-09-30T07:22:49;17.03;;;13.87;;
26040;SDS011;13816;53.628;9.950;2022-09-30T07:25:15;16.00;;;14.40;;
26040;SDS011;13816;53.628;9.950;2022-09-30T07:27:43;15.13;;;13.60;;
26040;SDS011;13816;53.628;9.950;2022-09-30T07:30:09;14.37;;;12.30;;
26040;SDS011;13816;53.628;9.950;2022-09-30T07:32:36;15.07;;;12.90;;
26040;SDS011;13816;53.628;9.950;2022-09-30T07:35:02;17.93;;;12.93;;
26040;SDS011;13816;53.628;9.950;2022-09-30T07:37:28;15.20;;;12.87;;
26040;SDS011;13816;53.628;9.950;2022-09-30T07:40:00;14.53;;;13.03;;
26040;SDS011;13816;53.628;9.950;2022-09-30T07:42:27;18.20;;;12.40;;
26040;SDS011;13816;53.628;9.950;2022-09-30T07:44:55;13.07;;;11.70;;
26040;SDS011;13816;53.628;9.950;2022-09-30T07:47:21;13.83;;;12.07;;
26040;SDS011;13816;53.628;9.950;2022-09-30T07:49:48;14.07;;;11.50;;
26040;SDS011;13816;53.628;9.950;2022-09-30T07:52:14;12.70;;;11.03;;
26040;SDS011;13816;53.628;9.950;2022-09-30T07:54:40;12.13;;;11.03;;
26040;SDS011;13816;53.628;9.950;2022-09-30T07:57:07;12.20;;;10.87;;
26040;SDS011;13816;53.628;9.950;2022-09-30T07:59:34;13.63;;;11.07;;
26040;SDS011;13816;53.628;9.950;2022-09-30T08:02:01;13.10;;;10.77;;
26040;SDS011;13816;53.628;9.950;2022-09-30T08:04:28;11.37;;;10.20;;
26040;SDS011;13816;53.628;9.950;2022-09-30T08:06:57;12.00;;;10.70;;
26040;SDS011;13816;53.628;9.950;2022-09-30T08:09:25;11.50;;;10.30;;
26040;SDS011;13816;53.628;9.950;2022-09-30T08:11:52;12.97;;;10.13;;
26040;SDS011;13816;53.628;9.950;2022-09-30T08:14:19;12.83;;;9.30;;
26040;SDS011;13816;53.628;9.950;2022-09-30T08:16:46;12.63;;;9.30;;
26040;SDS011;13816;53.628;9.950;2022-09-30T08:19:16;10.60;;;9.13;;
26040;SDS011;13816;53.628;9.950;2022-09-30T08:21:43;10.73;;;9.00;;
26040;SDS011;13816;53.628;9.950;2022-09-30T08:24:13;9.80;;;8.20;;
26040;SDS011;13816;53.628;9.950;2022-09-30T08:26:42;8.77;;;7.87;;
26040;SDS011;13816;53.628;9.950;2022-09-30T08:29:09;8.93;;;7.37;;
26040;SDS011;13816;53.628;9.950;2022-09-30T08:31:35;10.47;;;8.70;;
26040;SDS011;13816;53.628;9.950;2022-09-30T08:34:02;10.67;;;8.40;;
26040;SDS011;13816;53.628;9.950;2022-09-30T08:36:28;15.43;;;8.10;;
26040;SDS011;13816;53.628;9.950;2022-09-30T08:38:54;9.47;;;8.50;;
26040;SDS011;13816;53.628;9.950;2022-09-30T08:46:30;12.00;;;8.40;;
26040;SDS011;13816;53.628;9.950;2022-09-30T08:49:17;11.20;;;8.40;;
26040;SDS011;13816;53.628;9.950;2022-09-30T08:51:50;7.97;;;7.10;;
26040;SDS011;13816;53.628;9.950;2022-09-30T08:54:18;8.83;;;7.13;;
26040;SDS011;13816;53.628;9.950;2022-09-30T08:56:45;9.93;;;7.13;;
26040;SDS011;13816;53.628;9.950;2022-09-30T09:02:03;14.10;;;7.50;;
26040;SDS011;13816;53.628;9.950;2022-09-30T09:04:34;9.33;;;6.97;;
26040;SDS011;13816;53.628;9.950;2022-09-30T09:07:15;8.47;;;7.37;;
26040;SDS011;13816;53.628;9.950;2022-09-30T09:09:47;9.60;;;7.10;;
26040;SDS011;13816;53.628;9.950;2022-09-30T09:12:23;7.60;;;6.90;;
26040;SDS011;13816;53.628;9.950;2022-09-30T09:20:12;8.53;;;6.83;;
26040;SDS011;13816;53.628;9.950;2022-09-30T09:22:40;9.00;;;6.27;;
26040;SDS011;13816;53.628;9.950;2022-09-30T09:25:13;7.03;;;6.10;;
26040;SDS011;13816;53.628;9.950;2022-09-30T09:27:59;12.90;;;6.77;;
26040;SDS011;13816;53.628;9.950;2022-09-30T09:30:31;9.40;;;6.03;;
26040;SDS011;13816;53.628;9.950;2022-09-30T09:33:01;11.77;;;6.07;;
26040;SDS011;13816;53.628;9.950;2022-09-30T09:35:49;7.20;;;5.23;;
26040;SDS011;13816;53.628;9.950;2022-09-30T09:43:49;5.83;;;4.83;;
26040;SDS011;13816;53.628;9.950;2022-09-30T09:46:28;5.87;;;4.97;;
26040;SDS011;13816;53.628;9.950;2022-09-30T09:54:31;6.47;;;4.47;;
26040;SDS011;13816;53.628;9.950;2022-09-30T09:57:05;5.57;;;4.90;;
26040;SDS011;13816;53.628;9.950;2022-09-30T09:59:33;5.90;;;4.20;;
26040;SDS011;13816;53.628;9.950;2022-09-30T10:02:00;4.37;;;3.97;;
26040;SDS011;13816;53.628;9.950;2022-09-30T10:04:29;7.10;;;5.30;;
26040;SDS011;13816;53.628;9.950;2022-09-30T10:06:58;5.63;;;4.70;;
26040;SDS011;13816;53.628;9.950;2022-09-30T10:12:14;6.50;;;4.70;;
26040;SDS011;13816;53.628;9.950;2022-09-30T10:14:46;5.30;;;4.80;;
26040;SDS011;13816;53.628;9.950;2022-09-30T10:17:20;5.70;;;4.90;;
26040;SDS011;13816;53.628;9.950;2022-09-30T10:19:56;8.13;;;5.20;;
26040;SDS011;13816;53.628;9.950;2022-09-30T10:22:26;5.60;;;4.80;;
26040;SDS011;13816;53.628;9.950;2022-09-30T10:25:07;8.50;;;4.87;;
26040;SDS011;13816;53.628;9.950;2022-09-30T10:27:34;6.70;;;5.43;;
26040;SDS011;13816;53.628;9.950;2022-09-30T10:30:00;7.40;;;5.60;;
26040;SDS011;13816;53.628;9.950;2022-09-30T10:32:26;7.07;;;5.30;;
26040;SDS011;13816;53.628;9.950;2022-09-30T10:34:54;6.70;;;5.27;;
26040;SDS011;13816;53.628;9.950;2022-09-30T10:37:22;6.30;;;4.53;;
26040;SDS011;13816;53.628;9.950;2022-09-30T10:39:55;8.57;;;5.50;;
26040;SDS011;13816;53.628;9.950;2022-09-30T10:42:26;9.77;;;5.50;;
26040;SDS011;13816;53.628;9.950;2022-09-30T10:44:56;6.10;;;4.13;;
26040;SDS011;13816;53.628;9.950;2022-09-30T10:47:26;6.73;;;4.30;;
26040;SDS011;13816;53.628;9.950;2022-09-30T10:49:54;4.60;;;4.20;;
26040;SDS011;13816;53.628;9.950;2022-09-30T10:52:22;6.27;;;3.80;;
26040;SDS011;13816;53.628;9.950;2022-09-30T10:54:58;5.40;;;4.00;;
26040;SDS011;13816;53.628;9.950;2022-09-30T10:57:31;6.73;;;4.13;;
26040;SDS011;13816;53.628;9.950;2022-09-30T11:10:01;4.33;;;3.47;;
26040;SDS011;13816;53.628;9.950;2022-09-30T11:12:44;5.77;;;3.70;;
26040;SDS011;13816;53.628;9.950;2022-09-30T11:15:21;4.90;;;3.20;;
26040;SDS011;13816;53.628;9.950;2022-09-30T11:17:56;4.40;;;2.80;;
26040;SDS011;13816;53.628;9.950;2022-09-30T11:20:31;4.00;;;3.10;;
26040;SDS011;13816;53.628;9.950;2022-09-30T11:25:42;2.53;;;2.33;;
26040;SDS011;13816;53.628;9.950;2022-09-30T11:28:14;6.30;;;3.60;;
26040;SDS011;13816;53.628;9.950;2022-09-30T11:30:47;5.13;;;3.03;;
26040;SDS011;13816;53.628;9.950;2022-09-30T11:48:45;3.73;;;2.80;;
26040;SDS011;13816;53.628;9.950;2022-09-30T11:58:52;10.20;;;2.90;;
26040;SDS011;13816;53.628;9.950;2022-09-30T12:06:48;3.17;;;2.90;;
26040;SDS011;13816;53.628;9.950;2022-09-30T12:09:17;3.30;;;2.27;;
26040;SDS011;13816;53.628;9.950;2022-09-30T12:11:48;3.73;;;3.33;;
26040;SDS011;13816;53.628;9.950;2022-09-30T12:14:18;2.60;;;2.40;;
26040;SDS011;13816;53.628;9.950;2022-09-30T12:16:45;3.57;;;2.27;;
26040;SDS011;13816;53.628;9.950;2022-09-30T12:19:14;4.00;;;2.57;;
26040;SDS011;13816;53.628;9.950;2022-09-30T12:21:55;2.30;;;1.93;;
26040;SDS011;13816;53.628;9.950;2022-09-30T12:26:56;2.27;;;2.03;;
26040;SDS011;13816;53.628;9.950;2022-09-30T12:29:24;4.37;;;2.40;;
26040;SDS011;13816;53.628;9.950;2022-09-30T12:32:17;5.93;;;2.70;;
26040;SDS011;13816;53.628;9.950;2022-09-30T12:48:10;5.37;;;3.00;;
26040;SDS011;13816;53.628;9.950;2022-09-30T12:50:43;4.67;;;4.10;;
26040;SDS011;13816;53.628;9.950;2022-09-30T12:53:14;6.23;;;4.23;;
26040;SDS011;13816;53.628;9.950;2022-09-30T12:55:42;7.27;;;4.30;;
26040;SDS011;13816;53.628;9.950;2022-09-30T13:01:04;7.10;;;4.50;;
26040;SDS011;13816;53.628;9.950;2022-09-30T13:03:50;8.70;;;5.40;;
